Terminal Aerodrome Forecast
Issued by NWS Grand Forks, ND

Home | Current Version | Previous Version | Graphics & Text | Print | Product List | Glossary On
Versions: 1 2 3 4 5 6 7 8 9 10 11 12 13 14 15 16 17 18
000
FTUS43 KFGF 171725
TAFFAR
TAF
KFAR 171725Z 1718/1818 22010G20KT P6SM SCT250
      TEMPO 1718/1720 BKN100
     FM172100 27010KT P6SM VCTS BKN090CB
     FM180000 36009KT P6SM SCT200
     FM180800 01005KT P6SM SCT200=

USA.gov is the U.S. government's official web portal to all federal, state and local government web resources and services.